Historyczne dane pomiarowe

Dodano dane terminowe – wersja testowa.

Dane z okresu 1951-2019

Wersja bazy: 1.34 [2019-03-16, lista zmian], aktualizacja planowana na 2019-04-15

Dane meteo z obszaru Polski uzyskane na podstawie danych udostępnionych przez Instytut Meteorologii i Gospodarki Wodnej – Państwowy Instytut Badawczy.

 

Wybierz Datę:    

       

TemperaturaWilgotnośćWiatrCiśnienieOpadyŚniegCzas trwania zjawisk
 Stacja t tx tn tng RH VA  wxwx mslp ppp RRR   cm mm wxwxwxwxwxwxwx
1994-08-14 13.5 15.8 10.1 8.7 78.0- 6.0 5.7---- 0.0------------
1994-08-13 16.0 19.0 14.5 13.2 90.5- 6.0 4.3---- 3.2------------
1994-08-12 16.8 19.2 14.0 13.6 93.0- 7.3 3.0---- 18.3------------
1994-08-11 19.3 26.4 16.0 16.1 78.5- 7.7 3.0---- 2.8------------
1994-08-10 22.0 28.7 13.5 11.2 61.0- 2.7 1.3---- 0.0------------
1994-08-09 22.2 27.4 13.5 12.2 62.3- 3.3 1.7---- 0.0------------
1994-08-08 21.4 26.8 13.0 11.7 61.5- 3.7 1.0---- 0.0------------
1994-08-07 20.9 27.4 13.0 11.2 69.5- 2.7 3.0---- 0.0------------
1994-08-06 25.5 31.1 18.5 15.6 64.3- 4.3 2.3---- 0.0------------
1994-08-05 24.7 34.4 13.0 11.2 56.5- 1.3 1.3---- 0.0------------
1994-08-04 19.7 26.9 10.4 8.7 65.5- 1.3 2.3---- 0.0------------
1994-08-03 21.9 26.9 14.0 11.2 61.3- 1.3 3.0---- 0.0------------
1994-08-02 24.9 33.0 21.0 19.5 66.5- 0.3 1.7---- 0.0------------
1994-08-01 29.4 36.9 19.5 15.6 44.8- 1.3 0.7---- 0.0------------
1994-07-31 29.7 38.7 20.5 18.1 48.0- 2.3 2.3---- 0.0------------
1994-07-30 26.6 33.8 19.0 16.6 68.3- 1.0 1.7---- 0.0------------
1994-07-29 28.3 37.6 19.5 16.6 56.0- 0.7 0.7---- 0.0------------
1994-07-28 26.3 33.7 16.0 14.6 59.3- 0.3 0.3---- 0.0------------
1994-07-27 25.5 32.8 18.0 15.6 71.3- 2.0 2.3---- 0.0------------
1994-07-26 25.7 34.3 18.6 16.6 48.5- 0.3 0.7---- 0.0------------
1994-07-25 26.4 34.7 13.0 12.2 53.5- 1.3 1.3---- 0.0------------
1994-07-24 26.3 33.8 14.5 12.2 56.0- 1.0 0.3---- 0.0------------
1994-07-23 25.9 33.6 14.0 12.7 48.5- 0.3 0.7---- 0.0------------
1994-07-22 23.9 31.9 13.5 11.2 54.3- 1.3 0.7---- 0.0------------
1994-07-21 21.9 29.4 9.6 7.1 58.3- 1.7 1.0---- 0.0------------
1994-07-20 20.0 26.3 9.1 6.7 59.0- 1.0 1.3---- 0.0------------
1994-07-19 19.8 24.8 13.0 11.2 59.8- 2.0 2.3---- 0.0------------
1994-07-18 19.4 23.7 14.5 12.7 61.0- 1.0 2.3---- 0.0------------
1994-07-17 20.8 25.8 14.0 12.2 68.8- 3.3 2.3---- 0.0------------
1994-07-16 22.9 27.6 17.0 15.1 68.5- 1.0 2.3---- 0.0------------
1994-07-15 25.0 33.3 16.5 12.2 70.8- 1.7 1.3---- 0.0------------
1994-07-14 25.6 33.6 14.5 11.7 62.5- 1.0 1.3---- 0.0------------
1994-07-13 25.2 32.3 15.0 12.2 64.5- 1.3 1.7---- 0.0------------
1994-07-12 22.7 30.1 13.0 10.7 64.3- 1.0 3.0---- 0.0------------
1994-07-11 22.8 29.4 10.1 8.7 64.8- 0.3 1.7---- 0.0------------
1994-07-10 21.0 27.3 11.6 9.7 69.5- 4.3 2.3---- 0.0------------
1994-07-09 19.5 26.3 12.1 10.2 71.8- 2.3 3.0---- 0.0------------
1994-07-08 14.0 17.8 9.6 9.2 90.8- 6.3 2.0---- 6.8------------
1994-07-07 16.6 24.3 7.5 5.1 74.3- 4.0 2.3---- 23.4------------
1994-07-06 18.7 23.4 13.0 11.2 67.8- 1.0 2.3---- 0.0------------
1994-07-05 18.8 24.4 15.5 14.1 69.8- 5.3 1.7---- 0.0------------
1994-07-04 24.3 31.5 14.0 12.7 53.5- 1.3 1.3---- 0.0------------
1994-07-03 23.8 29.9 12.6 11.7 53.5- 1.3 1.7---- 0.0------------
1994-07-02 20.7 28.9 7.0 4.6 58.8- 2.0 2.3---- 0.0------------
1994-07-01 17.3 22.7 9.6 6.6 67.0- 2.7 2.3---- 0.0------------
1994-06-30 18.1 22.1 14.8 12.7 64.5- 2.3 3.0---- 0.0------------
1994-06-29 24.4 34.3 16.9 14.6 74.5- 3.7 3.7---- 3.4------------
1994-06-28 23.2 28.6 13.3 11.7 59.0- 0.3 0.7---- 0.0------------
1994-06-27 23.0 29.6 14.3 11.7 76.5- 1.0 2.3---- 0.0------------
1994-06-26 25.3 32.6 12.2 11.7 61.5- 0.3 1.3---- 0.0------------
1994-06-25 19.7 28.6 7.3 3.6 55.5- 1.7 3.7---- 0.0------------
1994-06-24 15.1 20.5 5.8 3.1 63.8- 2.3 2.3---- 0.0------------
1994-06-23 16.2 20.5 10.2 8.2 54.0- 1.0 5.7---- 0.0------------
1994-06-22 19.5 23.1 15.0 14.1 69.3- 2.0 4.3---- 0.0------------
1994-06-21 16.6 23.1 7.3 6.1 74.0- 3.7 4.3---- 0.0------------
1994-06-20 16.7 19.9 10.2 9.3 64.3- 3.0 3.0---- 0.0------------
1994-06-19 16.8 22.7 10.7 9.2 80.3- 6.0 2.3---- 0.0------------
1994-06-18 12.6 17.9 4.8 1.5 88.8- 5.0 3.7---- 5.1------------
1994-06-17 11.5 16.1 5.3 3.1 66.0- 5.3 3.7---- 6.3------------
1994-06-16 12.4 16.5 9.2 9.2 79.3- 6.7 5.0---- 1.8------------
248.6 ms

 

Źródłem pochodzenia danych jest Instytut Meteorologii i Gospodarki Wodnej – Państwowy Instytut Badawczy. Dane Instytutu Meteorologii i Gospodarki Wodnej – Państwowego Instytutu Badawczego zostały przetworzone.

Dane źródłowe można odnaleźć na stronie https://dane.imgw.pl